EDDC/DRS METAR and TAF weather

Enter ICAO airport designator
Station Type Date Time Source
EDDC METAR 2018/10/21 06:20 UTC NOAA

EDDC 210620Z 30003KT 9999 FEW019 BKN044 08/05 Q1028 NOSIG


Station Type Date Time Source
EDDC Decoded METAR 2018/10/21 06:20 UTC NOAA

Dresden-Klotzsche, Germany (EDDC) 51-08N 013-45E 232M
Oct 21, 2018 - 02:20 AM EDT / 2018.10.21 0620 UTC
Wind: from the WNW (300 degrees) at 3 MPH (3 KT):0
Visibility: greater than 7 mile(s):0
Sky conditions: mostly cloudy
Temperature: 46 F (8 C)
Dew Point: 41 F (5 C)
Relative Humidity: 81%
Pressure (altimeter): 30.36 in. Hg (1028 hPa)
ob: EDDC 210620Z 30003KT 9999 FEW019 BKN044 08/05 Q1028 NOSIG
cycle: 6

Station Type Date Time Source
EDDC TAF 2018/10/21 06:27 UTC NOAA

TAF EDDC 210500Z 2106/2206 18004KT 9999 SCT025
TEMPO 2106/2109 BKN014


Example: see airport list